Time;durP1;ratioP1;P1;durP2;ratioP2;P2;SDS_P1;SDS_P2;PMS_P1;PMS_P2;Temp;Humidity;BMP_temperature;BMP_pressure;BME280_temperature;BME280_humidity;BME280_pressure;Samples;Min_cycle;Max_cycle;Signal;HPM_P1;HPM_P2
2023/10/28 00:01:41;;;;;;;18.50;3.05;;;;;;;;;;5102129;28;20416;-84
2023/10/28 00:04:08;;;;;;;19.88;4.28;;;;;;;;;;5102527;28;20400;-85
2023/10/28 00:06:34;;;;;;;20.60;3.40;;;;;;;;;;5086746;28;20444;-84
2023/10/28 00:09:01;;;;;;;23.52;4.57;;;;;;;;;;5093930;28;20415;-84
2023/10/28 00:11:29;;;;;;;21.15;4.00;;;;;;;;;;5099565;28;20502;-84
2023/10/28 00:13:56;;;;;;;19.85;4.40;;;;;;;;;;5109253;28;20401;-84
2023/10/28 00:16:24;;;;;;;20.25;3.97;;;;;;;;;;5102417;28;20406;-84
2023/10/28 00:18:51;;;;;;;22.40;4.40;;;;;;;;;;5102692;28;20408;-84
2023/10/28 00:21:18;;;;;;;23.20;4.23;;;;;;;;;;5101797;28;20420;-83
2023/10/28 00:23:44;;;;;;;18.60;3.25;;;;;;;;;;5103606;28;20409;-84
2023/10/28 00:26:11;;;;;;;19.42;4.00;;;;;;;;;;5105366;28;20421;-83
2023/10/28 00:28:39;;;;;;;19.60;4.15;;;;;;;;;;5091108;28;20421;-84
2023/10/28 00:31:07;;;;;;;20.23;3.20;;;;;;;;;;5101258;28;20397;-84
2023/10/28 00:33:35;;;;;;;17.30;3.10;;;;;;;;;;5100205;28;20420;-83
2023/10/28 00:36:18;;;;;;;21.20;3.60;;;;;;;;;;5103114;28;20404;-85
2023/10/28 00:38:47;;;;;;;20.58;4.07;;;;;;;;;;5095265;28;20824;-84
2023/10/28 00:41:21;;;;;;;20.08;3.50;;;;;;;;;;5100193;28;20425;-83
2023/10/28 00:43:48;;;;;;;18.43;3.30;;;;;;;;;;5108456;28;20475;-82
2023/10/28 00:46:15;;;;;;;20.98;4.00;;;;;;;;;;5084723;28;20402;-82
2023/10/28 00:48:43;;;;;;;20.67;4.47;;;;;;;;;;5082342;28;20408;-84
2023/10/28 00:51:10;;;;;;;20.10;3.00;;;;;;;;;;5102683;28;21003;-83
2023/10/28 00:53:37;;;;;;;19.63;3.28;;;;;;;;;;5100287;28;20428;-83
2023/10/28 00:56:12;;;;;;;18.35;3.10;;;;;;;;;;5097219;28;20414;-83
2023/10/28 00:58:40;;;;;;;23.20;3.38;;;;;;;;;;5101603;28;20470;-83
2023/10/28 01:01:10;;;;;;;21.80;3.17;;;;;;;;;;5088856;28;20418;-83
2023/10/28 01:03:37;;;;;;;20.30;3.40;;;;;;;;;;5107359;28;21201;-82
2023/10/28 01:06:09;;;;;;;21.00;3.58;;;;;;;;;;5107505;28;20946;-83
2023/10/28 01:08:36;;;;;;;19.98;3.58;;;;;;;;;;5102300;28;20396;-83
2023/10/28 01:11:06;;;;;;;19.33;3.30;;;;;;;;;;5084042;28;20403;-82
2023/10/28 01:13:33;;;;;;;22.23;3.17;;;;;;;;;;5092621;28;20400;-82
2023/10/28 01:15:59;;;;;;;21.38;3.90;;;;;;;;;;5103059;28;20438;-83
2023/10/28 01:18:26;;;;;;;19.60;3.80;;;;;;;;;;5106645;28;20420;-83
2023/10/28 01:20:56;;;;;;;19.67;3.30;;;;;;;;;;5101050;28;20420;-83
2023/10/28 01:23:31;;;;;;;19.30;3.40;;;;;;;;;;5102078;28;20471;-82
2023/10/28 01:25:59;;;;;;;21.00;4.10;;;;;;;;;;5098163;28;20970;-82
2023/10/28 01:28:35;;;;;;;20.15;4.13;;;;;;;;;;5097772;28;20770;-82
2023/10/28 01:31:16;;;;;;;20.27;3.28;;;;;;;;;;5117209;27;20803;-82
2023/10/28 01:33:43;;;;;;;18.75;3.55;;;;;;;;;;5090993;28;21103;-83
2023/10/28 01:36:09;;;;;;;19.77;4.03;;;;;;;;;;5081798;28;20412;-82
2023/10/28 01:38:38;;;;;;;19.50;3.10;;;;;;;;;;5094105;28;20916;-83
2023/10/28 01:41:04;;;;;;;19.13;3.75;;;;;;;;;;5095613;28;20894;-82
2023/10/28 01:43:31;;;;;;;17.20;3.40;;;;;;;;;;5088829;28;20396;-82
2023/10/28 01:45:58;;;;;;;19.67;3.50;;;;;;;;;;5085692;28;20408;-82
2023/10/28 01:48:24;;;;;;;20.80;4.00;;;;;;;;;;5091033;28;20902;-81
2023/10/28 01:50:51;;;;;;;19.05;3.58;;;;;;;;;;5096845;28;20408;-81
2023/10/28 01:53:18;;;;;;;19.02;3.90;;;;;;;;;;5099981;28;20450;-81
2023/10/28 01:55:46;;;;;;;21.15;3.50;;;;;;;;;;5098830;28;20414;-81
2023/10/28 01:58:12;;;;;;;18.35;3.30;;;;;;;;;;5090341;28;20779;-80
2023/10/28 02:00:39;;;;;;;18.70;4.00;;;;;;;;;;5099989;28;20882;-82
2023/10/28 02:03:08;;;;;;;19.95;4.13;;;;;;;;;;5080266;28;20475;-83
2023/10/28 02:05:35;;;;;;;19.27;3.88;;;;;;;;;;5091987;28;20406;-82
2023/10/28 02:08:03;;;;;;;26.02;4.05;;;;;;;;;;5098251;28;20975;-81
2023/10/28 02:10:30;;;;;;;18.60;3.70;;;;;;;;;;5092462;28;20470;-82
2023/10/28 02:12:58;;;;;;;20.08;3.60;;;;;;;;;;5086556;28;20436;-82
2023/10/28 02:15:25;;;;;;;17.10;3.08;;;;;;;;;;5101270;28;20416;-82
2023/10/28 02:17:52;;;;;;;20.30;3.00;;;;;;;;;;5101081;28;20404;-82
2023/10/28 02:20:19;;;;;;;19.00;3.40;;;;;;;;;;5097795;28;20408;-82
2023/10/28 02:22:45;;;;;;;16.75;3.60;;;;;;;;;;5099488;28;20935;-81
2023/10/28 02:25:14;;;;;;;17.75;3.70;;;;;;;;;;5087205;28;20475;-81
2023/10/28 02:27:40;;;;;;;18.83;3.70;;;;;;;;;;5101092;28;20905;-82
2023/10/28 02:30:09;;;;;;;19.05;3.70;;;;;;;;;;5097619;28;20411;-82
2023/10/28 02:32:36;;;;;;;17.27;3.80;;;;;;;;;;5101430;28;20438;-81
2023/10/28 02:35:03;;;;;;;18.35;4.00;;;;;;;;;;5099788;28;20413;-81
2023/10/28 02:37:30;;;;;;;19.70;4.75;;;;;;;;;;5100482;28;20401;-82
2023/10/28 02:39:56;;;;;;;20.92;3.90;;;;;;;;;;5099310;28;20489;-81
2023/10/28 02:42:23;;;;;;;21.83;4.30;;;;;;;;;;5084228;28;20444;-81
2023/10/28 02:44:50;;;;;;;18.55;3.60;;;;;;;;;;5099207;28;20408;-81
2023/10/28 02:47:18;;;;;;;20.33;4.47;;;;;;;;;;5102023;28;20955;-81
2023/10/28 02:49:45;;;;;;;17.45;3.55;;;;;;;;;;5088184;28;20411;-81
2023/10/28 02:52:12;;;;;;;20.60;4.18;;;;;;;;;;5100951;28;20465;-82
2023/10/28 02:54:39;;;;;;;17.67;3.90;;;;;;;;;;5100464;28;20443;-82
2023/10/28 02:57:07;;;;;;;21.05;3.88;;;;;;;;;;5099975;28;20409;-82
2023/10/28 02:59:33;;;;;;;17.33;3.43;;;;;;;;;;5102332;28;20963;-82
2023/10/28 03:02:00;;;;;;;18.90;3.97;;;;;;;;;;5099883;28;20504;-82
2023/10/28 03:04:28;;;;;;;19.80;4.00;;;;;;;;;;5098035;28;20747;-82
2023/10/28 03:06:55;;;;;;;18.43;3.90;;;;;;;;;;5094934;28;20840;-82
2023/10/28 03:09:21;;;;;;;21.25;4.35;;;;;;;;;;5105661;28;20498;-81
2023/10/28 03:11:48;;;;;;;18.17;4.13;;;;;;;;;;5082094;28;20485;-82
2023/10/28 03:14:15;;;;;;;17.92;3.85;;;;;;;;;;5083852;28;20924;-82
2023/10/28 03:16:44;;;;;;;20.08;4.50;;;;;;;;;;5098580;28;20908;-82
2023/10/28 03:19:11;;;;;;;19.10;3.35;;;;;;;;;;5094302;28;20448;-81
2023/10/28 03:21:39;;;;;;;19.88;3.90;;;;;;;;;;5100033;28;20485;-82
2023/10/28 03:24:07;;;;;;;18.63;4.20;;;;;;;;;;5098147;28;20425;-81
2023/10/28 03:26:33;;;;;;;19.00;3.30;;;;;;;;;;5091140;28;20405;-81
2023/10/28 03:29:00;;;;;;;18.48;3.55;;;;;;;;;;5085388;28;20751;-82
2023/10/28 03:31:26;;;;;;;17.50;3.03;;;;;;;;;;5102770;28;20924;-82
2023/10/28 03:33:54;;;;;;;17.05;3.10;;;;;;;;;;5098152;28;20402;-82
2023/10/28 03:36:23;;;;;;;17.08;2.60;;;;;;;;;;5100983;28;20404;-82
2023/10/28 03:38:52;;;;;;;17.45;2.30;;;;;;;;;;5099831;28;20408;-81
2023/10/28 03:41:19;;;;;;;19.77;2.80;;;;;;;;;;5102883;28;20552;-81
2023/10/28 03:43:46;;;;;;;15.60;2.40;;;;;;;;;;5097640;28;20498;-81
2023/10/28 03:46:15;;;;;;;15.73;2.20;;;;;;;;;;5099817;28;20467;-82
2023/10/28 03:48:41;;;;;;;15.50;2.08;;;;;;;;;;5093953;28;20726;-82
2023/10/28 03:51:08;;;;;;;15.20;1.90;;;;;;;;;;5099130;28;20500;-82
2023/10/28 03:53:35;;;;;;;15.35;1.92;;;;;;;;;;5097138;28;20445;-82
2023/10/28 03:56:04;;;;;;;18.35;2.10;;;;;;;;;;5099153;28;20409;-82
2023/10/28 03:58:30;;;;;;;17.27;2.27;;;;;;;;;;5097705;28;20408;-81
2023/10/28 04:00:58;;;;;;;16.17;2.00;;;;;;;;;;5085324;28;20443;-82
2023/10/28 04:03:25;;;;;;;15.77;1.70;;;;;;;;;;5093953;28;20502;-82
2023/10/28 04:05:53;;;;;;;16.60;1.80;;;;;;;;;;5096949;28;20409;-82
2023/10/28 04:08:20;;;;;;;16.88;1.90;;;;;;;;;;5103483;28;20430;-82
2023/10/28 04:10:46;;;;;;;15.90;1.70;;;;;;;;;;5101807;28;20413;-82
2023/10/28 04:13:14;;;;;;;15.45;1.80;;;;;;;;;;5093100;28;20413;-82
2023/10/28 04:15:41;;;;;;;15.15;1.63;;;;;;;;;;5095633;28;20420;-82
2023/10/28 04:18:08;;;;;;;15.10;1.90;;;;;;;;;;5105351;28;20413;-82
2023/10/28 04:20:35;;;;;;;15.93;1.73;;;;;;;;;;5102358;28;20484;-82
2023/10/28 04:23:02;;;;;;;17.00;2.30;;;;;;;;;;5104301;28;20420;-82
2023/10/28 04:25:29;;;;;;;17.35;2.05;;;;;;;;;;5108583;28;20404;-82
2023/10/28 04:27:56;;;;;;;16.90;2.10;;;;;;;;;;5105192;28;20488;-83
2023/10/28 04:30:24;;;;;;;15.77;2.30;;;;;;;;;;5102593;28;20424;-82
2023/10/28 04:32:51;;;;;;;15.27;1.80;;;;;;;;;;5111116;28;20489;-81
2023/10/28 04:35:19;;;;;;;16.55;2.13;;;;;;;;;;5109009;28;20767;-82
2023/10/28 04:37:57;;;;;;;16.48;2.00;;;;;;;;;;5093919;28;20909;-82
2023/10/28 04:40:24;;;;;;;16.42;1.90;;;;;;;;;;5108143;28;20902;-81
2023/10/28 04:42:51;;;;;;;16.50;2.20;;;;;;;;;;5095651;28;20425;-82
2023/10/28 04:45:20;;;;;;;16.00;2.30;;;;;;;;;;5106273;28;20410;-82
2023/10/28 04:47:48;;;;;;;15.23;2.00;;;;;;;;;;5096258;28;20775;-82
2023/10/28 04:50:16;;;;;;;15.43;2.20;;;;;;;;;;5105859;28;20904;-82
2023/10/28 04:52:43;;;;;;;16.10;1.90;;;;;;;;;;5107609;28;20408;-81
2023/10/28 04:55:12;;;;;;;15.82;2.40;;;;;;;;;;5103817;28;20418;-81
2023/10/28 04:57:40;;;;;;;16.45;2.55;;;;;;;;;;5109287;28;20407;-81
2023/10/28 05:00:07;;;;;;;15.43;2.00;;;;;;;;;;5108665;28;20437;-81
2023/10/28 05:02:34;;;;;;;14.98;2.20;;;;;;;;;;5106646;28;20513;-81
2023/10/28 05:05:03;;;;;;;15.48;2.40;;;;;;;;;;5107336;28;20441;-81
2023/10/28 05:07:30;;;;;;;15.73;2.13;;;;;;;;;;5108423;28;20408;-81
2023/10/28 05:09:56;;;;;;;15.73;2.20;;;;;;;;;;5101932;28;20527;-81
2023/10/28 05:12:23;;;;;;;20.15;2.30;;;;;;;;;;5105856;28;20517;-81
2023/10/28 05:14:50;;;;;;;16.77;2.20;;;;;;;;;;5114167;27;20463;-80
2023/10/28 05:17:16;;;;;;;18.13;2.20;;;;;;;;;;5103895;28;20415;-81
2023/10/28 05:19:43;;;;;;;16.38;2.10;;;;;;;;;;5107773;28;20407;-81
2023/10/28 05:22:11;;;;;;;16.00;1.92;;;;;;;;;;5094510;28;20415;-81
2023/10/28 05:24:38;;;;;;;15.40;1.90;;;;;;;;;;5107612;28;20449;-81
2023/10/28 05:27:04;;;;;;;17.17;1.90;;;;;;;;;;5109426;28;20433;-81
2023/10/28 05:29:31;;;;;;;16.10;1.65;;;;;;;;;;5104493;28;20913;-81
2023/10/28 05:31:58;;;;;;;17.77;2.17;;;;;;;;;;5104628;28;20428;-81
2023/10/28 05:34:25;;;;;;;14.52;1.73;;;;;;;;;;5102327;28;20400;-80
2023/10/28 05:36:51;;;;;;;15.90;1.42;;;;;;;;;;5110148;28;20400;-81
2023/10/28 05:39:22;;;;;;;15.25;1.70;;;;;;;;;;5105861;28;20493;-80
2023/10/28 05:41:48;;;;;;;14.85;1.50;;;;;;;;;;5108612;28;20494;-81
2023/10/28 05:44:16;;;;;;;16.02;1.50;;;;;;;;;;5110555;28;20443;-82
2023/10/28 05:46:44;;;;;;;17.20;1.67;;;;;;;;;;5126949;27;20484;-80
2023/10/28 05:49:12;;;;;;;14.80;1.60;;;;;;;;;;5106754;28;20402;-80
2023/10/28 05:51:39;;;;;;;15.77;2.20;;;;;;;;;;5103423;28;20433;-80
2023/10/28 05:54:06;;;;;;;17.10;3.07;;;;;;;;;;5107090;28;20449;-80
2023/10/28 05:56:35;;;;;;;16.65;2.20;;;;;;;;;;5103697;28;20398;-80
2023/10/28 05:59:01;;;;;;;16.40;2.00;;;;;;;;;;5101082;28;20509;-78
2023/10/28 06:01:28;;;;;;;14.80;1.52;;;;;;;;;;5101140;28;20410;-76
2023/10/28 06:03:55;;;;;;;15.57;1.70;;;;;;;;;;5107074;28;20418;-79
2023/10/28 06:06:21;;;;;;;15.40;1.70;;;;;;;;;;5110435;28;20463;-81
2023/10/28 06:08:48;;;;;;;14.50;1.73;;;;;;;;;;5098649;28;20416;-80
2023/10/28 06:11:14;;;;;;;17.27;2.50;;;;;;;;;;5110031;28;20431;-81
2023/10/28 06:13:43;;;;;;;17.00;2.47;;;;;;;;;;5101248;28;20452;-78
2023/10/28 06:16:10;;;;;;;19.98;2.33;;;;;;;;;;5101908;28;21029;-79
2023/10/28 06:18:37;;;;;;;16.10;2.10;;;;;;;;;;5100279;28;20425;-80
2023/10/28 06:21:04;;;;;;;18.50;2.00;;;;;;;;;;5100981;28;20492;-80
2023/10/28 06:23:30;;;;;;;16.38;2.47;;;;;;;;;;5087428;28;20745;-79
2023/10/28 06:25:57;;;;;;;30.20;9.27;;;;;;;;;;5103034;28;20523;-79
2023/10/28 06:28:24;;;;;;;24.50;5.85;;;;;;;;;;5095405;28;20409;-79
2023/10/28 06:30:53;;;;;;;16.77;2.00;;;;;;;;;;5082616;28;20518;-81
2023/10/28 06:33:19;;;;;;;17.27;2.03;;;;;;;;;;5101948;28;20413;-79
2023/10/28 06:35:46;;;;;;;17.60;2.22;;;;;;;;;;5101832;28;20492;-80
2023/10/28 06:38:13;;;;;;;15.35;1.88;;;;;;;;;;5100566;28;20414;-80
2023/10/28 06:40:39;;;;;;;17.00;2.53;;;;;;;;;;5082139;28;20416;-79
2023/10/28 06:43:06;;;;;;;16.15;2.10;;;;;;;;;;5098548;28;20548;-80
2023/10/28 06:45:32;;;;;;;15.25;2.03;;;;;;;;;;5094620;28;20505;-80
2023/10/28 06:48:01;;;;;;;17.00;1.60;;;;;;;;;;5085290;28;21018;-80
2023/10/28 06:50:28;;;;;;;15.70;2.10;;;;;;;;;;5105963;28;20401;-79
2023/10/28 06:52:56;;;;;;;16.92;1.80;;;;;;;;;;5101052;28;20461;-80
2023/10/28 06:55:23;;;;;;;16.27;2.70;;;;;;;;;;5103465;28;20433;-81
2023/10/28 06:57:50;;;;;;;16.38;2.47;;;;;;;;;;5103174;28;20396;-81
2023/10/28 07:00:17;;;;;;;15.20;2.08;;;;;;;;;;5107129;28;20460;-80
2023/10/28 07:02:44;;;;;;;17.65;2.15;;;;;;;;;;5096765;28;20429;-80
2023/10/28 07:05:14;;;;;;;16.17;3.03;;;;;;;;;;5104934;28;20412;-79
2023/10/28 07:07:43;;;;;;;15.97;2.10;;;;;;;;;;5104164;28;20412;-80
2023/10/28 07:10:14;;;;;;;15.98;2.10;;;;;;;;;;5095356;28;20406;-81
2023/10/28 07:12:41;;;;;;;16.70;1.80;;;;;;;;;;5112048;28;20404;-80
2023/10/28 07:15:11;;;;;;;15.68;1.75;;;;;;;;;;5107748;28;20421;-80
2023/10/28 07:17:39;;;;;;;15.02;1.80;;;;;;;;;;5118508;28;20393;-80
2023/10/28 07:20:07;;;;;;;16.98;2.10;;;;;;;;;;5115184;28;20396;-80
2023/10/28 07:22:35;;;;;;;16.42;2.30;;;;;;;;;;5114368;28;20405;-81
2023/10/28 07:25:04;;;;;;;17.87;2.53;;;;;;;;;;5114663;28;20442;-80
2023/10/28 07:27:31;;;;;;;17.42;2.30;;;;;;;;;;5110478;28;20412;-79
2023/10/28 07:29:59;;;;;;;15.63;2.58;;;;;;;;;;5092494;28;20436;-81
2023/10/28 07:32:26;;;;;;;14.55;1.90;;;;;;;;;;5096411;28;20495;-81
2023/10/28 07:34:52;;;;;;;15.90;2.15;;;;;;;;;;5103291;28;20427;-82
2023/10/28 07:37:19;;;;;;;17.55;2.70;;;;;;;;;;5098340;28;20463;-83
2023/10/28 07:39:47;;;;;;;19.40;4.30;;;;;;;;;;5097655;28;20499;-84
2023/10/28 07:42:15;;;;;;;19.10;3.10;;;;;;;;;;5089745;28;20414;-84
2023/10/28 07:44:42;;;;;;;20.48;3.28;;;;;;;;;;5092849;28;20453;-84
2023/10/28 07:47:10;;;;;;;17.00;2.30;;;;;;;;;;5099964;28;20409;-84
2023/10/28 07:49:37;;;;;;;18.65;1.88;;;;;;;;;;5099892;28;20437;-83
2023/10/28 07:52:04;;;;;;;18.02;3.20;;;;;;;;;;5097056;28;20421;-83
2023/10/28 07:54:32;;;;;;;16.70;2.80;;;;;;;;;;5096842;28;20454;-83
2023/10/28 07:57:00;;;;;;;19.33;4.10;;;;;;;;;;5096635;28;20707;-82
2023/10/28 07:59:27;;;;;;;17.65;2.80;;;;;;;;;;5093417;28;20406;-82
2023/10/28 08:01:54;;;;;;;15.70;2.60;;;;;;;;;;5084459;28;20413;-83
2023/10/28 08:04:20;;;;;;;17.85;2.97;;;;;;;;;;5086350;28;20469;-82
2023/10/28 08:06:47;;;;;;;17.08;2.72;;;;;;;;;;5099657;28;20400;-82
2023/10/28 08:09:14;;;;;;;17.90;2.50;;;;;;;;;;5100990;28;20487;-83
2023/10/28 08:11:41;;;;;;;16.67;2.00;;;;;;;;;;5106450;28;20907;-82
2023/10/28 08:14:08;;;;;;;15.60;2.00;;;;;;;;;;5107189;28;20404;-82
2023/10/28 08:16:35;;;;;;;18.50;3.10;;;;;;;;;;5105081;28;20494;-83
2023/10/28 08:19:03;;;;;;;18.35;3.00;;;;;;;;;;5101498;28;20410;-82
2023/10/28 08:21:30;;;;;;;16.83;2.38;;;;;;;;;;5098496;28;20402;-81
2023/10/28 08:23:57;;;;;;;15.63;2.00;;;;;;;;;;5105019;28;20832;-82
2023/10/28 08:26:24;;;;;;;16.43;2.40;;;;;;;;;;5102561;28;20899;-82
2023/10/28 08:28:51;;;;;;;16.40;2.40;;;;;;;;;;5095264;28;20405;-82
2023/10/28 08:31:19;;;;;;;17.88;2.38;;;;;;;;;;5103414;28;20771;-82
2023/10/28 08:33:49;;;;;;;17.23;2.70;;;;;;;;;;5109607;28;20458;-82
2023/10/28 08:36:17;;;;;;;17.60;2.70;;;;;;;;;;5109933;28;20493;-83
2023/10/28 08:38:44;;;;;;;16.65;2.55;;;;;;;;;;5102208;28;20880;-83
2023/10/28 08:41:13;;;;;;;15.93;2.40;;;;;;;;;;5110291;28;21055;-83
2023/10/28 08:43:40;;;;;;;15.57;2.17;;;;;;;;;;5104319;28;20834;-82
2023/10/28 08:46:10;;;;;;;17.20;2.50;;;;;;;;;;5098284;28;20503;-82
2023/10/28 08:48:38;;;;;;;15.43;2.17;;;;;;;;;;5098353;28;20505;-82
2023/10/28 08:51:07;;;;;;;16.35;1.80;;;;;;;;;;5109360;28;20404;-82
2023/10/28 08:53:35;;;;;;;16.13;2.10;;;;;;;;;;5102256;28;20410;-82
2023/10/28 08:56:02;;;;;;;15.38;2.00;;;;;;;;;;5098517;28;20405;-82
2023/10/28 08:58:29;;;;;;;17.73;3.30;;;;;;;;;;5102355;28;20414;-82
2023/10/28 09:00:56;;;;;;;16.30;2.60;;;;;;;;;;5092231;28;20451;-83
2023/10/28 09:03:25;;;;;;;17.50;2.50;;;;;;;;;;5098535;28;20496;-83
2023/10/28 09:05:53;;;;;;;18.25;3.10;;;;;;;;;;5100317;28;20412;-82
2023/10/28 09:08:20;;;;;;;15.73;2.50;;;;;;;;;;5097420;28;20912;-82
2023/10/28 09:10:46;;;;;;;16.85;2.70;;;;;;;;;;5100924;28;20485;-82
2023/10/28 09:13:13;;;;;;;18.10;2.75;;;;;;;;;;5086894;28;20408;-83
2023/10/28 09:15:40;;;;;;;16.83;2.88;;;;;;;;;;5100857;28;20427;-82
2023/10/28 09:18:08;;;;;;;19.30;3.33;;;;;;;;;;5091057;28;20430;-83
2023/10/28 09:20:37;;;;;;;18.23;3.30;;;;;;;;;;5108905;28;20473;-82
2023/10/28 09:23:05;;;;;;;16.77;2.97;;;;;;;;;;5097620;28;20413;-82
2023/10/28 09:25:34;;;;;;;18.38;3.20;;;;;;;;;;5102898;28;20418;-82
2023/10/28 09:28:02;;;;;;;18.40;3.00;;;;;;;;;;5100507;28;20440;-82
2023/10/28 09:30:29;;;;;;;18.52;2.90;;;;;;;;;;5103854;28;20432;-82
2023/10/28 09:32:57;;;;;;;21.07;4.40;;;;;;;;;;5091941;28;20420;-81
2023/10/28 09:35:24;;;;;;;16.95;2.60;;;;;;;;;;5085942;28;20892;-81
2023/10/28 09:37:51;;;;;;;18.20;2.47;;;;;;;;;;5099374;28;20422;-82
2023/10/28 09:40:19;;;;;;;16.73;2.65;;;;;;;;;;5079571;28;20413;-82
2023/10/28 09:42:46;;;;;;;17.20;2.80;;;;;;;;;;5092418;28;20427;-82
2023/10/28 09:45:13;;;;;;;16.80;2.23;;;;;;;;;;5094470;28;20463;-81
2023/10/28 09:47:49;;;;;;;16.45;2.30;;;;;;;;;;5106869;28;20411;-80
2023/10/28 09:50:16;;;;;;;18.15;2.60;;;;;;;;;;5091645;28;20759;-80
2023/10/28 09:52:45;;;;;;;16.67;2.80;;;;;;;;;;5099525;28;20404;-80
2023/10/28 09:55:13;;;;;;;16.53;3.10;;;;;;;;;;5098504;28;20488;-80
2023/10/28 09:57:42;;;;;;;15.80;2.43;;;;;;;;;;5090703;28;20965;-80
2023/10/28 10:00:11;;;;;;;16.15;2.22;;;;;;;;;;5105477;28;20808;-80
2023/10/28 10:02:44;;;;;;;16.80;2.90;;;;;;;;;;5102296;28;20451;-80
2023/10/28 10:05:15;;;;;;;15.18;2.30;;;;;;;;;;5110452;28;20439;-79
2023/10/28 10:07:42;;;;;;;16.98;3.15;;;;;;;;;;5103896;28;20402;-79
2023/10/28 10:10:19;;;;;;;16.77;2.25;;;;;;;;;;5089207;28;20412;-79
2023/10/28 10:12:54;;;;;;;16.60;2.67;;;;;;;;;;5107693;28;21036;-80
2023/10/28 10:15:21;;;;;;;16.77;1.92;;;;;;;;;;5098631;28;20404;-81
2023/10/28 10:17:55;;;;;;;18.50;2.25;;;;;;;;;;5110002;28;20413;-80
2023/10/28 10:20:25;;;;;;;15.50;1.88;;;;;;;;;;5105029;28;20401;-80
2023/10/28 10:22:58;;;;;;;15.43;1.73;;;;;;;;;;5109679;28;20915;-80
2023/10/28 10:25:32;;;;;;;15.77;1.52;;;;;;;;;;5103958;28;20431;-81
2023/10/28 10:28:09;;;;;;;14.77;1.30;;;;;;;;;;5107746;28;20418;-79
2023/10/28 10:30:36;;;;;;;15.55;1.45;;;;;;;;;;5107540;28;20494;-79
2023/10/28 10:33:03;;;;;;;15.93;1.30;;;;;;;;;;5101431;28;20758;-79
2023/10/28 10:35:31;;;;;;;17.07;1.30;;;;;;;;;;5097949;28;20413;-80
2023/10/28 10:38:05;;;;;;;15.50;1.47;;;;;;;;;;5088620;28;20428;-79
2023/10/28 10:40:32;;;;;;;15.82;1.40;;;;;;;;;;5094714;28;20405;-78
2023/10/28 10:43:07;;;;;;;14.70;1.33;;;;;;;;;;5091498;28;20409;-80
2023/10/28 10:45:34;;;;;;;15.20;1.55;;;;;;;;;;5100295;28;20454;-79
2023/10/28 10:48:03;;;;;;;15.30;1.40;;;;;;;;;;5086262;28;20447;-80
2023/10/28 10:50:31;;;;;;;14.40;1.30;;;;;;;;;;5105950;28;20395;-79
2023/10/28 10:52:58;;;;;;;15.15;1.40;;;;;;;;;;5103990;28;20903;-79
2023/10/28 10:55:25;;;;;;;15.40;1.50;;;;;;;;;;5095873;28;20392;-80
2023/10/28 10:57:51;;;;;;;14.93;1.60;;;;;;;;;;5100808;28;20402;-79
2023/10/28 11:00:20;;;;;;;16.35;1.77;;;;;;;;;;5101457;28;20772;-78
2023/10/28 11:02:47;;;;;;;19.88;1.90;;;;;;;;;;5100390;28;20410;-80
2023/10/28 11:05:15;;;;;;;17.30;1.75;;;;;;;;;;5098557;28;20524;-79
2023/10/28 11:07:42;;;;;;;18.20;1.80;;;;;;;;;;5099723;28;20417;-79
2023/10/28 11:10:09;;;;;;;16.30;1.70;;;;;;;;;;5095742;28;20420;-79
2023/10/28 11:12:36;;;;;;;18.05;2.10;;;;;;;;;;5098545;28;20886;-79
2023/10/28 11:15:03;;;;;;;17.38;1.90;;;;;;;;;;5093692;28;20423;-79
2023/10/28 11:17:31;;;;;;;16.70;1.50;;;;;;;;;;5080895;28;20414;-78
2023/10/28 11:20:03;;;;;;;18.70;1.70;;;;;;;;;;5085261;28;20403;-80
2023/10/28 11:22:30;;;;;;;16.75;2.17;;;;;;;;;;5099308;28;20398;-78
2023/10/28 11:24:57;;;;;;;17.02;1.80;;;;;;;;;;5100847;28;20436;-80
2023/10/28 11:27:23;;;;;;;18.60;1.75;;;;;;;;;;5100777;28;20412;-79
2023/10/28 11:29:50;;;;;;;17.48;1.58;;;;;;;;;;5099272;28;20418;-78
2023/10/28 11:32:19;;;;;;;17.38;1.98;;;;;;;;;;5100060;28;20964;-80
2023/10/28 11:34:47;;;;;;;17.50;2.00;;;;;;;;;;5106429;28;20398;-78
2023/10/28 11:37:14;;;;;;;17.70;2.10;;;;;;;;;;5093522;28;20465;-79
2023/10/28 11:39:44;;;;;;;15.75;1.92;;;;;;;;;;5102265;28;20408;-80
2023/10/28 11:42:11;;;;;;;17.75;1.90;;;;;;;;;;5104657;28;20412;-82
2023/10/28 11:44:38;;;;;;;17.55;1.83;;;;;;;;;;5101202;28;20508;-79
2023/10/28 11:47:08;;;;;;;17.38;1.90;;;;;;;;;;5102212;28;20499;-79
2023/10/28 11:49:34;;;;;;;18.20;1.80;;;;;;;;;;5101463;28;20739;-79
2023/10/28 11:52:05;;;;;;;17.38;1.88;;;;;;;;;;5099281;28;20404;-80
2023/10/28 11:54:33;;;;;;;17.30;1.60;;;;;;;;;;5102944;28;20400;-78
2023/10/28 11:56:59;;;;;;;18.13;2.33;;;;;;;;;;5102969;28;20406;-78
2023/10/28 11:59:26;;;;;;;18.02;1.88;;;;;;;;;;5102857;28;20987;-80
2023/10/28 12:01:53;;;;;;;18.52;1.80;;;;;;;;;;5098800;28;20411;-77
2023/10/28 12:04:23;;;;;;;17.80;1.75;;;;;;;;;;5108669;28;20834;-76
2023/10/28 12:06:49;;;;;;;16.85;1.50;;;;;;;;;;5101782;28;20432;-77
2023/10/28 12:09:17;;;;;;;18.17;2.17;;;;;;;;;;5103807;28;20412;-80
2023/10/28 12:11:46;;;;;;;19.05;1.80;;;;;;;;;;5099610;28;20416;-78
2023/10/28 12:14:12;;;;;;;16.77;1.70;;;;;;;;;;5100612;28;20414;-78
2023/10/28 12:16:39;;;;;;;19.50;1.70;;;;;;;;;;5101297;28;20415;-79
2023/10/28 12:19:06;;;;;;;17.40;2.00;;;;;;;;;;5098937;28;20413;-76
2023/10/28 12:21:33;;;;;;;16.42;1.63;;;;;;;;;;5104767;28;20431;-78
2023/10/28 12:24:04;;;;;;;16.27;1.80;;;;;;;;;;5102619;28;20406;-77
2023/10/28 12:26:32;;;;;;;17.55;1.70;;;;;;;;;;5100065;28;20812;-78
2023/10/28 12:28:58;;;;;;;15.20;1.50;;;;;;;;;;5100500;28;20500;-79
2023/10/28 12:31:25;;;;;;;15.13;1.30;;;;;;;;;;5100767;28;20409;-78
2023/10/28 12:33:52;;;;;;;16.38;1.70;;;;;;;;;;5099659;28;20440;-80
2023/10/28 12:36:20;;;;;;;15.57;1.40;;;;;;;;;;5101929;28;20788;-77
2023/10/28 12:38:46;;;;;;;15.55;1.60;;;;;;;;;;5102328;28;20459;-75
2023/10/28 12:41:13;;;;;;;15.50;1.52;;;;;;;;;;5098381;28;20499;-79
2023/10/28 12:43:41;;;;;;;15.20;1.70;;;;;;;;;;5102305;28;20492;-76
2023/10/28 12:46:09;;;;;;;16.40;1.40;;;;;;;;;;5101643;28;20424;-78
2023/10/28 12:48:36;;;;;;;16.53;1.53;;;;;;;;;;5116739;27;20493;-78
2023/10/28 12:51:02;;;;;;;17.60;1.67;;;;;;;;;;5100047;28;21157;-77
2023/10/28 12:53:29;;;;;;;16.77;1.40;;;;;;;;;;5099244;28;20426;-78
2023/10/28 12:55:56;;;;;;;17.90;1.60;;;;;;;;;;5101620;28;20430;-78
2023/10/28 12:58:23;;;;;;;15.60;1.52;;;;;;;;;;5092207;28;20958;-78
2023/10/28 13:00:52;;;;;;;15.20;1.40;;;;;;;;;;5101922;28;20876;-78
2023/10/28 13:03:18;;;;;;;17.20;1.60;;;;;;;;;;5099139;28;20863;-80
2023/10/28 13:05:45;;;;;;;15.63;1.48;;;;;;;;;;5102484;28;20780;-78
2023/10/28 13:08:13;;;;;;;16.40;1.60;;;;;;;;;;5099518;28;20438;-80
2023/10/28 13:10:40;;;;;;;14.70;1.40;;;;;;;;;;5119113;27;20472;-77
2023/10/28 13:13:06;;;;;;;16.88;1.40;;;;;;;;;;5102921;28;20404;-77
2023/10/28 13:15:33;;;;;;;17.10;1.30;;;;;;;;;;5100350;28;20413;-76
2023/10/28 13:18:01;;;;;;;14.68;1.13;;;;;;;;;;5087004;28;20884;-78
2023/10/28 13:20:28;;;;;;;14.55;1.35;;;;;;;;;;5102087;28;20547;-76
2023/10/28 13:22:54;;;;;;;16.42;1.42;;;;;;;;;;5097135;28;20404;-76
2023/10/28 13:25:23;;;;;;;15.18;1.40;;;;;;;;;;5088481;28;20426;-77
2023/10/28 13:27:50;;;;;;;15.07;1.15;;;;;;;;;;5099442;28;20410;-77
2023/10/28 13:30:16;;;;;;;14.70;1.20;;;;;;;;;;5101991;28;20463;-80
2023/10/28 13:32:46;;;;;;;16.15;1.35;;;;;;;;;;5097961;28;20428;-75
2023/10/28 13:35:23;;;;;;;14.70;1.30;;;;;;;;;;5101825;28;20623;-76
2023/10/28 13:37:50;;;;;;;14.80;1.30;;;;;;;;;;5090200;28;20432;-78
2023/10/28 13:40:17;;;;;;;14.83;1.20;;;;;;;;;;5091591;28;20499;-75
2023/10/28 13:42:44;;;;;;;14.63;1.10;;;;;;;;;;5095681;28;20408;-79
2023/10/28 13:45:10;;;;;;;15.40;1.20;;;;;;;;;;5091538;28;20960;-80
2023/10/28 13:47:39;;;;;;;14.30;1.30;;;;;;;;;;5087439;28;20852;-77
2023/10/28 13:50:06;;;;;;;14.88;1.30;;;;;;;;;;5099194;28;20506;-77
2023/10/28 13:52:35;;;;;;;13.87;1.03;;;;;;;;;;5099757;28;20487;-77
2023/10/28 13:55:03;;;;;;;14.10;1.00;;;;;;;;;;5097872;28;20416;-77
2023/10/28 13:57:30;;;;;;;14.30;1.10;;;;;;;;;;5097800;28;20410;-78
2023/10/28 13:59:57;;;;;;;14.90;1.10;;;;;;;;;;5099864;28;20860;-77
2023/10/28 14:02:24;;;;;;;15.55;1.73;;;;;;;;;;5101985;28;20457;-78
2023/10/28 14:04:51;;;;;;;14.10;1.10;;;;;;;;;;5100157;28;20521;-78
2023/10/28 14:07:17;;;;;;;14.43;1.17;;;;;;;;;;5104926;28;20442;-79
2023/10/28 14:09:44;;;;;;;;;;;;;;;;;;5098519;28;20472;-79
2023/10/28 14:12:12;;;;;;;14.80;1.20;;;;;;;;;;5090624;28;20453;-78
2023/10/28 14:14:38;;;;;;;14.93;1.30;;;;;;;;;;5101033;28;20483;-78
2023/10/28 14:17:05;;;;;;;14.98;1.17;;;;;;;;;;5101381;28;21014;-78
2023/10/28 14:19:32;;;;;;;14.10;1.00;;;;;;;;;;5102058;28;20478;-77
2023/10/28 14:22:02;;;;;;;13.70;0.90;;;;;;;;;;5090488;28;21248;-78
2023/10/28 14:24:29;;;;;;;14.88;1.10;;;;;;;;;;5108411;28;20433;-77
2023/10/28 14:26:56;;;;;;;14.77;1.38;;;;;;;;;;5106724;28;20416;-79
2023/10/28 14:29:24;;;;;;;14.10;1.10;;;;;;;;;;5097730;28;20414;-75
2023/10/28 14:31:50;;;;;;;14.00;1.00;;;;;;;;;;5101431;28;20424;-76
2023/10/28 14:34:17;;;;;;;14.05;1.00;;;;;;;;;;5097651;28;20416;-77